sensor_id;sensor_type;location;lat;lon;timestamp;temperature;humidity
54680;DHT22;40578;53.178;5.846;2023-07-29T00:01:31;18.00;99.90
54680;DHT22;40578;53.178;5.846;2023-07-29T00:03:57;18.20;99.90
54680;DHT22;40578;53.178;5.846;2023-07-29T00:06:23;18.00;99.90
54680;DHT22;40578;53.178;5.846;2023-07-29T00:08:49;18.10;99.90
54680;DHT22;40578;53.178;5.846;2023-07-29T00:11:14;18.10;99.90
54680;DHT22;40578;53.178;5.846;2023-07-29T00:13:40;18.10;99.90
54680;DHT22;40578;53.178;5.846;2023-07-29T00:16:05;18.10;99.90
54680;DHT22;40578;53.178;5.846;2023-07-29T00:18:31;17.90;99.90
54680;DHT22;40578;53.178;5.846;2023-07-29T00:20:57;18.00;99.90
54680;DHT22;40578;53.178;5.846;2023-07-29T00:23:23;18.10;99.90
54680;DHT22;40578;53.178;5.846;2023-07-29T00:25:49;18.60;99.90
54680;DHT22;40578;53.178;5.846;2023-07-29T00:28:14;17.80;99.90
54680;DHT22;40578;53.178;5.846;2023-07-29T00:30:40;18.00;99.90
54680;DHT22;40578;53.178;5.846;2023-07-29T00:33:06;18.00;99.90
54680;DHT22;40578;53.178;5.846;2023-07-29T00:35:31;17.80;99.90
54680;DHT22;40578;53.178;5.846;2023-07-29T00:37:57;17.80;99.90
54680;DHT22;40578;53.178;5.846;2023-07-29T00:40:23;18.00;99.90
54680;DHT22;40578;53.178;5.846;2023-07-29T00:42:49;17.90;99.90
54680;DHT22;40578;53.178;5.846;2023-07-29T00:45:16;18.10;99.90
54680;DHT22;40578;53.178;5.846;2023-07-29T00:47:42;17.90;99.90
54680;DHT22;40578;53.178;5.846;2023-07-29T00:50:11;18.00;99.90
54680;DHT22;40578;53.178;5.846;2023-07-29T00:52:37;17.90;99.90
54680;DHT22;40578;53.178;5.846;2023-07-29T00:55:04;17.90;99.90
54680;DHT22;40578;53.178;5.846;2023-07-29T00:57:30;17.90;99.90
54680;DHT22;40578;53.178;5.846;2023-07-29T00:59:56;17.70;99.90
54680;DHT22;40578;53.178;5.846;2023-07-29T01:02:22;17.90;99.90
54680;DHT22;40578;53.178;5.846;2023-07-29T01:04:55;17.80;99.90
54680;DHT22;40578;53.178;5.846;2023-07-29T01:12:56;17.80;99.90
54680;DHT22;40578;53.178;5.846;2023-07-29T01:15:31;17.50;99.90
54680;DHT22;40578;53.178;5.846;2023-07-29T01:18:06;17.50;99.90
54680;DHT22;40578;53.178;5.846;2023-07-29T01:20:37;17.60;99.90
54680;DHT22;40578;53.178;5.846;2023-07-29T01:23:02;17.50;99.90
54680;DHT22;40578;53.178;5.846;2023-07-29T01:25:28;17.80;99.90
54680;DHT22;40578;53.178;5.846;2023-07-29T01:27:54;17.80;99.90
54680;DHT22;40578;53.178;5.846;2023-07-29T01:30:24;17.70;99.90
54680;DHT22;40578;53.178;5.846;2023-07-29T01:33:12;17.70;99.90
54680;DHT22;40578;53.178;5.846;2023-07-29T01:35:46;17.90;99.90
54680;DHT22;40578;53.178;5.846;2023-07-29T01:38:29;17.70;99.90
54680;DHT22;40578;53.178;5.846;2023-07-29T01:41:01;17.80;99.90
54680;DHT22;40578;53.178;5.846;2023-07-29T01:43:31;18.00;99.90
54680;DHT22;40578;53.178;5.846;2023-07-29T01:45:57;17.80;99.90
54680;DHT22;40578;53.178;5.846;2023-07-29T01:48:23;17.80;99.90
54680;DHT22;40578;53.178;5.846;2023-07-29T01:50:49;17.90;99.90
54680;DHT22;40578;53.178;5.846;2023-07-29T01:53:15;17.80;99.90
54680;DHT22;40578;53.178;5.846;2023-07-29T01:55:41;17.80;99.90
54680;DHT22;40578;53.178;5.846;2023-07-29T01:58:07;17.80;99.90
54680;DHT22;40578;53.178;5.846;2023-07-29T02:00:33;17.80;99.90
54680;DHT22;40578;53.178;5.846;2023-07-29T02:02:58;17.70;99.90
54680;DHT22;40578;53.178;5.846;2023-07-29T02:05:24;17.70;99.90
54680;DHT22;40578;53.178;5.846;2023-07-29T02:07:49;17.60;99.90
54680;DHT22;40578;53.178;5.846;2023-07-29T02:10:15;17.70;99.90
54680;DHT22;40578;53.178;5.846;2023-07-29T02:12:41;17.60;99.90
54680;DHT22;40578;53.178;5.846;2023-07-29T02:15:07;17.80;99.90
54680;DHT22;40578;53.178;5.846;2023-07-29T02:17:33;17.70;99.90
54680;DHT22;40578;53.178;5.846;2023-07-29T02:19:59;17.50;99.90
54680;DHT22;40578;53.178;5.846;2023-07-29T02:22:24;17.60;99.90
54680;DHT22;40578;53.178;5.846;2023-07-29T02:24:50;17.60;99.90
54680;DHT22;40578;53.178;5.846;2023-07-29T02:27:16;17.70;99.90
54680;DHT22;40578;53.178;5.846;2023-07-29T02:29:41;17.80;99.90
54680;DHT22;40578;53.178;5.846;2023-07-29T02:32:07;17.60;99.90
54680;DHT22;40578;53.178;5.846;2023-07-29T02:34:32;17.60;99.90
54680;DHT22;40578;53.178;5.846;2023-07-29T02:36:58;17.40;99.90
54680;DHT22;40578;53.178;5.846;2023-07-29T02:39:24;17.60;99.90
54680;DHT22;40578;53.178;5.846;2023-07-29T02:41:49;17.50;99.90
54680;DHT22;40578;53.178;5.846;2023-07-29T02:44:15;17.40;99.90
54680;DHT22;40578;53.178;5.846;2023-07-29T02:46:41;17.30;99.90
54680;DHT22;40578;53.178;5.846;2023-07-29T02:49:06;17.40;99.90
54680;DHT22;40578;53.178;5.846;2023-07-29T02:51:32;17.60;99.90
54680;DHT22;40578;53.178;5.846;2023-07-29T02:53:58;17.50;99.90
54680;DHT22;40578;53.178;5.846;2023-07-29T02:56:24;17.30;99.90
54680;DHT22;40578;53.178;5.846;2023-07-29T02:58:50;17.20;99.90
54680;DHT22;40578;53.178;5.846;2023-07-29T03:01:19;17.40;99.90
54680;DHT22;40578;53.178;5.846;2023-07-29T03:03:45;17.30;99.90
54680;DHT22;40578;53.178;5.846;2023-07-29T03:06:13;17.10;99.90
54680;DHT22;40578;53.178;5.846;2023-07-29T03:08:39;17.00;99.90
54680;DHT22;40578;53.178;5.846;2023-07-29T03:11:09;17.00;99.90
54680;DHT22;40578;53.178;5.846;2023-07-29T03:13:36;17.10;99.90
54680;DHT22;40578;53.178;5.846;2023-07-29T03:16:06;17.00;99.90
54680;DHT22;40578;53.178;5.846;2023-07-29T03:18:32;16.90;99.90
54680;DHT22;40578;53.178;5.846;2023-07-29T03:20:57;16.80;99.90
54680;DHT22;40578;53.178;5.846;2023-07-29T03:23:23;17.20;99.90
54680;DHT22;40578;53.178;5.846;2023-07-29T03:25:49;17.10;99.90
54680;DHT22;40578;53.178;5.846;2023-07-29T03:28:18;16.90;99.90
54680;DHT22;40578;53.178;5.846;2023-07-29T03:30:44;16.70;99.90
54680;DHT22;40578;53.178;5.846;2023-07-29T03:33:09;16.70;99.90
54680;DHT22;40578;53.178;5.846;2023-07-29T03:35:35;16.60;99.90
54680;DHT22;40578;53.178;5.846;2023-07-29T03:38:00;16.70;99.90
54680;DHT22;40578;53.178;5.846;2023-07-29T03:40:26;16.50;99.90
54680;DHT22;40578;53.178;5.846;2023-07-29T03:42:51;16.60;99.90
54680;DHT22;40578;53.178;5.846;2023-07-29T03:45:17;16.50;99.90
54680;DHT22;40578;53.178;5.846;2023-07-29T03:47:43;16.50;99.90
54680;DHT22;40578;53.178;5.846;2023-07-29T03:50:08;16.50;99.90
54680;DHT22;40578;53.178;5.846;2023-07-29T03:52:34;16.50;99.90
54680;DHT22;40578;53.178;5.846;2023-07-29T03:55:00;16.70;99.90
54680;DHT22;40578;53.178;5.846;2023-07-29T03:57:25;16.70;99.90
54680;DHT22;40578;53.178;5.846;2023-07-29T03:59:52;16.50;99.90
54680;DHT22;40578;53.178;5.846;2023-07-29T04:02:17;16.80;99.90
54680;DHT22;40578;53.178;5.846;2023-07-29T04:04:43;16.50;99.90
54680;DHT22;40578;53.178;5.846;2023-07-29T04:07:12;16.60;99.90
54680;DHT22;40578;53.178;5.846;2023-07-29T04:09:38;16.40;99.90
54680;DHT22;40578;53.178;5.846;2023-07-29T04:12:04;16.60;99.90
54680;DHT22;40578;53.178;5.846;2023-07-29T04:14:30;16.50;99.90
54680;DHT22;40578;53.178;5.846;2023-07-29T04:16:56;16.40;99.90
54680;DHT22;40578;53.178;5.846;2023-07-29T04:19:21;16.50;99.90
54680;DHT22;40578;53.178;5.846;2023-07-29T04:21:47;16.50;99.90
54680;DHT22;40578;53.178;5.846;2023-07-29T04:24:13;16.40;99.90
54680;DHT22;40578;53.178;5.846;2023-07-29T04:26:38;16.50;99.90
54680;DHT22;40578;53.178;5.846;2023-07-29T04:29:04;16.30;99.90
54680;DHT22;40578;53.178;5.846;2023-07-29T04:31:30;16.40;99.90
54680;DHT22;40578;53.178;5.846;2023-07-29T04:33:56;16.60;99.90
54680;DHT22;40578;53.178;5.846;2023-07-29T04:36:21;16.50;99.90
54680;DHT22;40578;53.178;5.846;2023-07-29T04:38:47;16.30;99.90
54680;DHT22;40578;53.178;5.846;2023-07-29T04:41:13;16.40;99.90
54680;DHT22;40578;53.178;5.846;2023-07-29T04:43:38;16.30;99.90
54680;DHT22;40578;53.178;5.846;2023-07-29T04:46:07;16.30;99.90
54680;DHT22;40578;53.178;5.846;2023-07-29T04:48:33;16.40;99.90
54680;DHT22;40578;53.178;5.846;2023-07-29T04:50:59;16.70;99.90
54680;DHT22;40578;53.178;5.846;2023-07-29T04:53:25;16.30;99.90
54680;DHT22;40578;53.178;5.846;2023-07-29T04:55:50;16.70;99.90
54680;DHT22;40578;53.178;5.846;2023-07-29T04:58:16;16.50;99.90
54680;DHT22;40578;53.178;5.846;2023-07-29T05:00:41;16.60;99.90
54680;DHT22;40578;53.178;5.846;2023-07-29T05:03:07;16.60;99.90
54680;DHT22;40578;53.178;5.846;2023-07-29T05:05:33;16.60;99.90
54680;DHT22;40578;53.178;5.846;2023-07-29T05:07:58;16.80;99.90
54680;DHT22;40578;53.178;5.846;2023-07-29T05:10:24;16.90;99.90
54680;DHT22;40578;53.178;5.846;2023-07-29T05:12:51;16.80;99.90
54680;DHT22;40578;53.178;5.846;2023-07-29T05:15:16;16.60;99.90
54680;DHT22;40578;53.178;5.846;2023-07-29T05:17:44;16.90;99.90
54680;DHT22;40578;53.178;5.846;2023-07-29T05:20:09;16.80;99.90
54680;DHT22;40578;53.178;5.846;2023-07-29T05:22:35;16.80;99.90
54680;DHT22;40578;53.178;5.846;2023-07-29T05:25:01;16.80;99.90
54680;DHT22;40578;53.178;5.846;2023-07-29T05:27:26;16.80;99.90
54680;DHT22;40578;53.178;5.846;2023-07-29T05:29:52;16.90;99.90
54680;DHT22;40578;53.178;5.846;2023-07-29T05:32:17;16.80;99.90
54680;DHT22;40578;53.178;5.846;2023-07-29T05:34:43;16.80;99.90
54680;DHT22;40578;53.178;5.846;2023-07-29T05:37:09;17.00;99.90
54680;DHT22;40578;53.178;5.846;2023-07-29T05:39:35;17.00;99.90
54680;DHT22;40578;53.178;5.846;2023-07-29T05:42:00;17.00;99.90
54680;DHT22;40578;53.178;5.846;2023-07-29T05:44:28;17.20;99.90
54680;DHT22;40578;53.178;5.846;2023-07-29T05:46:55;16.90;99.90
54680;DHT22;40578;53.178;5.846;2023-07-29T05:49:21;17.10;99.90
54680;DHT22;40578;53.178;5.846;2023-07-29T05:51:47;17.00;99.90
54680;DHT22;40578;53.178;5.846;2023-07-29T05:54:12;17.20;99.90
54680;DHT22;40578;53.178;5.846;2023-07-29T05:56:38;17.20;99.90
54680;DHT22;40578;53.178;5.846;2023-07-29T05:59:03;17.20;99.90
54680;DHT22;40578;53.178;5.846;2023-07-29T06:01:29;17.40;99.90
54680;DHT22;40578;53.178;5.846;2023-07-29T06:03:55;17.60;99.90
54680;DHT22;40578;53.178;5.846;2023-07-29T06:06:21;17.60;99.90
54680;DHT22;40578;53.178;5.846;2023-07-29T06:08:49;17.80;99.90
54680;DHT22;40578;53.178;5.846;2023-07-29T06:11:15;17.90;99.90
54680;DHT22;40578;53.178;5.846;2023-07-29T06:13:40;18.00;99.90
54680;DHT22;40578;53.178;5.846;2023-07-29T06:16:06;18.20;99.90
54680;DHT22;40578;53.178;5.846;2023-07-29T06:18:32;18.00;99.90
54680;DHT22;40578;53.178;5.846;2023-07-29T06:20:57;17.90;99.90
54680;DHT22;40578;53.178;5.846;2023-07-29T06:23:23;18.00;99.90
54680;DHT22;40578;53.178;5.846;2023-07-29T06:25:49;18.20;99.90
54680;DHT22;40578;53.178;5.846;2023-07-29T06:28:14;18.40;99.90
54680;DHT22;40578;53.178;5.846;2023-07-29T06:30:40;18.50;99.90
54680;DHT22;40578;53.178;5.846;2023-07-29T06:33:06;18.50;99.90
54680;DHT22;40578;53.178;5.846;2023-07-29T06:35:32;18.50;99.90
54680;DHT22;40578;53.178;5.846;2023-07-29T06:37:57;18.70;99.90
54680;DHT22;40578;53.178;5.846;2023-07-29T06:40:23;18.60;99.90
54680;DHT22;40578;53.178;5.846;2023-07-29T06:42:48;18.60;99.90
54680;DHT22;40578;53.178;5.846;2023-07-29T06:45:14;18.70;99.90
54680;DHT22;40578;53.178;5.846;2023-07-29T06:47:41;18.60;99.90
54680;DHT22;40578;53.178;5.846;2023-07-29T06:50:06;18.60;99.90
54680;DHT22;40578;53.178;5.846;2023-07-29T06:52:32;18.40;99.90
54680;DHT22;40578;53.178;5.846;2023-07-29T06:54:58;18.50;99.90
54680;DHT22;40578;53.178;5.846;2023-07-29T06:57:24;18.60;99.90
54680;DHT22;40578;53.178;5.846;2023-07-29T06:59:49;18.60;99.90
54680;DHT22;40578;53.178;5.846;2023-07-29T07:02:15;18.50;99.90
54680;DHT22;40578;53.178;5.846;2023-07-29T07:04:40;18.60;99.90
54680;DHT22;40578;53.178;5.846;2023-07-29T07:07:06;18.50;99.90
54680;DHT22;40578;53.178;5.846;2023-07-29T07:09:32;18.40;99.90
54680;DHT22;40578;53.178;5.846;2023-07-29T07:11:57;18.60;99.90
54680;DHT22;40578;53.178;5.846;2023-07-29T07:14:23;18.60;99.90
54680;DHT22;40578;53.178;5.846;2023-07-29T07:16:49;18.70;99.90
54680;DHT22;40578;53.178;5.846;2023-07-29T07:19:14;18.70;99.90
54680;DHT22;40578;53.178;5.846;2023-07-29T07:21:43;18.60;99.90
54680;DHT22;40578;53.178;5.846;2023-07-29T07:24:08;18.70;99.90
54680;DHT22;40578;53.178;5.846;2023-07-29T07:26:34;18.80;99.90
54680;DHT22;40578;53.178;5.846;2023-07-29T07:29:00;18.90;99.90
54680;DHT22;40578;53.178;5.846;2023-07-29T07:31:25;19.00;99.90
54680;DHT22;40578;53.178;5.846;2023-07-29T07:33:51;19.00;99.90
54680;DHT22;40578;53.178;5.846;2023-07-29T07:36:16;18.90;99.90
54680;DHT22;40578;53.178;5.846;2023-07-29T07:38:42;19.00;99.90
54680;DHT22;40578;53.178;5.846;2023-07-29T07:41:07;18.80;99.90
54680;DHT22;40578;53.178;5.846;2023-07-29T07:43:33;18.80;99.90
54680;DHT22;40578;53.178;5.846;2023-07-29T07:46:00;18.80;99.90
54680;DHT22;40578;53.178;5.846;2023-07-29T07:48:27;18.90;99.90
54680;DHT22;40578;53.178;5.846;2023-07-29T07:50:52;18.90;99.90
54680;DHT22;40578;53.178;5.846;2023-07-29T07:53:18;18.90;99.90
54680;DHT22;40578;53.178;5.846;2023-07-29T07:55:45;19.00;99.90
54680;DHT22;40578;53.178;5.846;2023-07-29T07:58:10;19.10;99.90
54680;DHT22;40578;53.178;5.846;2023-07-29T08:00:36;19.10;99.90
54680;DHT22;40578;53.178;5.846;2023-07-29T08:03:02;19.10;99.90
54680;DHT22;40578;53.178;5.846;2023-07-29T08:05:27;19.00;99.90
54680;DHT22;40578;53.178;5.846;2023-07-29T08:07:53;19.10;99.90
54680;DHT22;40578;53.178;5.846;2023-07-29T08:10:19;19.00;99.90
54680;DHT22;40578;53.178;5.846;2023-07-29T08:12:44;19.20;99.90
54680;DHT22;40578;53.178;5.846;2023-07-29T08:15:10;19.20;99.90
54680;DHT22;40578;53.178;5.846;2023-07-29T08:17:35;19.00;99.90
54680;DHT22;40578;53.178;5.846;2023-07-29T08:20:01;19.10;99.90
54680;DHT22;40578;53.178;5.846;2023-07-29T08:22:27;19.10;99.90
54680;DHT22;40578;53.178;5.846;2023-07-29T08:24:52;18.90;99.90
54680;DHT22;40578;53.178;5.846;2023-07-29T08:27:18;19.00;99.90
54680;DHT22;40578;53.178;5.846;2023-07-29T08:29:43;19.00;99.90
54680;DHT22;40578;53.178;5.846;2023-07-29T08:32:09;19.10;99.90
54680;DHT22;40578;53.178;5.846;2023-07-29T08:34:35;19.10;99.90
54680;DHT22;40578;53.178;5.846;2023-07-29T08:37:01;19.30;99.90
54680;DHT22;40578;53.178;5.846;2023-07-29T08:39:27;19.30;99.90
54680;DHT22;40578;53.178;5.846;2023-07-29T08:44:41;19.60;99.90
54680;DHT22;40578;53.178;5.846;2023-07-29T08:47:07;19.60;99.90
54680;DHT22;40578;53.178;5.846;2023-07-29T08:49:33;19.90;99.90
54680;DHT22;40578;53.178;5.846;2023-07-29T08:51:59;20.20;99.90
54680;DHT22;40578;53.178;5.846;2023-07-29T08:54:26;20.30;99.90
54680;DHT22;40578;53.178;5.846;2023-07-29T08:56:52;20.30;99.90
54680;DHT22;40578;53.178;5.846;2023-07-29T08:59:18;20.20;99.90
54680;DHT22;40578;53.178;5.846;2023-07-29T09:01:44;20.10;99.90
54680;DHT22;40578;53.178;5.846;2023-07-29T09:04:10;20.00;99.90
54680;DHT22;40578;53.178;5.846;2023-07-29T09:06:36;19.80;99.90
54680;DHT22;40578;53.178;5.846;2023-07-29T09:09:08;19.70;99.90
54680;DHT22;40578;53.178;5.846;2023-07-29T09:11:34;19.70;99.90
54680;DHT22;40578;53.178;5.846;2023-07-29T09:13:59;19.70;99.90
54680;DHT22;40578;53.178;5.846;2023-07-29T09:16:25;19.80;99.90
54680;DHT22;40578;53.178;5.846;2023-07-29T09:18:52;19.90;99.90
54680;DHT22;40578;53.178;5.846;2023-07-29T09:21:22;19.80;99.90
54680;DHT22;40578;53.178;5.846;2023-07-29T09:23:50;20.00;99.90
54680;DHT22;40578;53.178;5.846;2023-07-29T09:26:25;20.00;99.90
54680;DHT22;40578;53.178;5.846;2023-07-29T09:28:56;20.00;99.90
54680;DHT22;40578;53.178;5.846;2023-07-29T09:31:23;20.00;99.90
54680;DHT22;40578;53.178;5.846;2023-07-29T09:33:49;19.80;99.90
54680;DHT22;40578;53.178;5.846;2023-07-29T09:36:15;19.70;99.90
54680;DHT22;40578;53.178;5.846;2023-07-29T09:38:41;19.80;99.90
54680;DHT22;40578;53.178;5.846;2023-07-29T09:41:06;19.80;99.90
54680;DHT22;40578;53.178;5.846;2023-07-29T09:43:34;19.80;99.90
54680;DHT22;40578;53.178;5.846;2023-07-29T09:46:04;19.90;99.90
54680;DHT22;40578;53.178;5.846;2023-07-29T09:48:37;19.90;99.90
54680;DHT22;40578;53.178;5.846;2023-07-29T09:51:13;19.80;99.90
54680;DHT22;40578;53.178;5.846;2023-07-29T09:53:40;20.00;99.90
54680;DHT22;40578;53.178;5.846;2023-07-29T09:56:06;20.10;99.90
54680;DHT22;40578;53.178;5.846;2023-07-29T09:58:33;20.10;99.90
54680;DHT22;40578;53.178;5.846;2023-07-29T10:00:58;20.30;99.90
54680;DHT22;40578;53.178;5.846;2023-07-29T10:03:25;20.40;99.90
54680;DHT22;40578;53.178;5.846;2023-07-29T10:05:51;21.10;99.90
54680;DHT22;40578;53.178;5.846;2023-07-29T10:08:18;20.70;99.90
54680;DHT22;40578;53.178;5.846;2023-07-29T10:10:44;20.80;99.90
54680;DHT22;40578;53.178;5.846;2023-07-29T10:13:10;20.90;99.90
54680;DHT22;40578;53.178;5.846;2023-07-29T10:15:37;20.70;99.90
54680;DHT22;40578;53.178;5.846;2023-07-29T10:18:03;20.60;99.90
54680;DHT22;40578;53.178;5.846;2023-07-29T10:20:30;20.50;99.90
54680;DHT22;40578;53.178;5.846;2023-07-29T10:22:57;20.40;99.90
54680;DHT22;40578;53.178;5.846;2023-07-29T10:25:24;20.40;99.90
54680;DHT22;40578;53.178;5.846;2023-07-29T10:28:04;20.40;99.90
54680;DHT22;40578;53.178;5.846;2023-07-29T10:30:30;20.60;99.90
54680;DHT22;40578;53.178;5.846;2023-07-29T10:32:58;20.60;99.90
54680;DHT22;40578;53.178;5.846;2023-07-29T10:35:26;20.70;99.90
54680;DHT22;40578;53.178;5.846;2023-07-29T10:37:52;20.80;99.90
54680;DHT22;40578;53.178;5.846;2023-07-29T10:40:19;20.80;99.90
54680;DHT22;40578;53.178;5.846;2023-07-29T10:43:09;21.00;99.90
54680;DHT22;40578;53.178;5.846;2023-07-29T10:45:39;21.10;99.90
54680;DHT22;40578;53.178;5.846;2023-07-29T10:48:09;21.20;99.90
54680;DHT22;40578;53.178;5.846;2023-07-29T10:50:35;20.90;99.90
54680;DHT22;40578;53.178;5.846;2023-07-29T10:53:01;20.60;99.90
54680;DHT22;40578;53.178;5.846;2023-07-29T10:55:32;20.50;99.90
54680;DHT22;40578;53.178;5.846;2023-07-29T10:58:27;20.50;99.90
54680;DHT22;40578;53.178;5.846;2023-07-29T11:00:55;20.50;99.90
54680;DHT22;40578;53.178;5.846;2023-07-29T11:03:21;20.30;99.90
54680;DHT22;40578;53.178;5.846;2023-07-29T11:05:53;20.20;99.90
54680;DHT22;40578;53.178;5.846;2023-07-29T11:08:39;20.00;99.90
54680;DHT22;40578;53.178;5.846;2023-07-29T11:11:11;19.80;99.90
54680;DHT22;40578;53.178;5.846;2023-07-29T11:13:38;19.50;99.90
54680;DHT22;40578;53.178;5.846;2023-07-29T11:16:05;19.40;99.90
54680;DHT22;40578;53.178;5.846;2023-07-29T11:18:35;19.10;99.90
54680;DHT22;40578;53.178;5.846;2023-07-29T11:21:04;19.00;99.90
54680;DHT22;40578;53.178;5.846;2023-07-29T11:23:35;19.10;99.90
54680;DHT22;40578;53.178;5.846;2023-07-29T11:26:02;19.30;99.90
54680;DHT22;40578;53.178;5.846;2023-07-29T11:28:28;19.30;99.90
54680;DHT22;40578;53.178;5.846;2023-07-29T11:30:57;19.50;99.90
54680;DHT22;40578;53.178;5.846;2023-07-29T11:33:26;19.60;99.90
54680;DHT22;40578;53.178;5.846;2023-07-29T11:35:54;19.90;99.90
54680;DHT22;40578;53.178;5.846;2023-07-29T11:38:21;20.20;99.90
54680;DHT22;40578;53.178;5.846;2023-07-29T11:40:57;20.40;99.90
54680;DHT22;40578;53.178;5.846;2023-07-29T11:43:23;20.60;99.90
54680;DHT22;40578;53.178;5.846;2023-07-29T11:45:49;20.70;99.90
54680;DHT22;40578;53.178;5.846;2023-07-29T11:48:15;20.80;99.90
54680;DHT22;40578;53.178;5.846;2023-07-29T11:50:40;20.80;99.90
54680;DHT22;40578;53.178;5.846;2023-07-29T11:53:06;20.50;99.90
54680;DHT22;40578;53.178;5.846;2023-07-29T11:55:33;20.20;99.90
54680;DHT22;40578;53.178;5.846;2023-07-29T11:57:59;20.10;99.90
54680;DHT22;40578;53.178;5.846;2023-07-29T12:00:26;20.00;99.90
54680;DHT22;40578;53.178;5.846;2023-07-29T12:02:52;20.10;99.90
54680;DHT22;40578;53.178;5.846;2023-07-29T12:05:18;20.20;99.90
54680;DHT22;40578;53.178;5.846;2023-07-29T12:07:47;20.30;99.90
54680;DHT22;40578;53.178;5.846;2023-07-29T12:10:13;20.40;99.90
54680;DHT22;40578;53.178;5.846;2023-07-29T12:12:45;20.30;99.90
54680;DHT22;40578;53.178;5.846;2023-07-29T12:15:11;20.40;99.90
54680;DHT22;40578;53.178;5.846;2023-07-29T12:17:41;20.30;99.90
54680;DHT22;40578;53.178;5.846;2023-07-29T12:20:11;20.30;99.90
54680;DHT22;40578;53.178;5.846;2023-07-29T12:22:37;20.40;99.90
54680;DHT22;40578;53.178;5.846;2023-07-29T12:25:03;20.50;99.90
54680;DHT22;40578;53.178;5.846;2023-07-29T12:27:30;20.50;99.90
54680;DHT22;40578;53.178;5.846;2023-07-29T12:29:55;20.60;99.90
54680;DHT22;40578;53.178;5.846;2023-07-29T12:32:25;20.90;99.90
54680;DHT22;40578;53.178;5.846;2023-07-29T12:34:53;21.10;99.90
54680;DHT22;40578;53.178;5.846;2023-07-29T12:37:18;21.10;99.90
54680;DHT22;40578;53.178;5.846;2023-07-29T12:39:44;20.90;99.90
54680;DHT22;40578;53.178;5.846;2023-07-29T12:42:10;20.80;99.90
54680;DHT22;40578;53.178;5.846;2023-07-29T12:44:37;20.90;99.90
54680;DHT22;40578;53.178;5.846;2023-07-29T12:47:04;21.20;99.90
54680;DHT22;40578;53.178;5.846;2023-07-29T12:49:31;21.40;99.90
54680;DHT22;40578;53.178;5.846;2023-07-29T12:51:57;21.40;99.90
54680;DHT22;40578;53.178;5.846;2023-07-29T12:54:23;21.50;99.90
54680;DHT22;40578;53.178;5.846;2023-07-29T12:56:48;21.50;99.90
54680;DHT22;40578;53.178;5.846;2023-07-29T12:59:14;21.20;99.90
54680;DHT22;40578;53.178;5.846;2023-07-29T13:01:40;21.30;99.90
54680;DHT22;40578;53.178;5.846;2023-07-29T13:04:06;21.50;99.90
54680;DHT22;40578;53.178;5.846;2023-07-29T13:06:32;21.50;99.90
54680;DHT22;40578;53.178;5.846;2023-07-29T13:08:57;21.40;99.90
54680;DHT22;40578;53.178;5.846;2023-07-29T13:11:23;21.50;99.90
54680;DHT22;40578;53.178;5.846;2023-07-29T13:13:49;21.60;99.90
54680;DHT22;40578;53.178;5.846;2023-07-29T13:16:15;21.80;99.90
54680;DHT22;40578;53.178;5.846;2023-07-29T13:18:41;21.90;99.90
54680;DHT22;40578;53.178;5.846;2023-07-29T13:21:08;22.00;99.90
54680;DHT22;40578;53.178;5.846;2023-07-29T13:23:34;22.10;99.90
54680;DHT22;40578;53.178;5.846;2023-07-29T13:25:59;21.50;99.90
54680;DHT22;40578;53.178;5.846;2023-07-29T13:28:25;21.70;99.90
54680;DHT22;40578;53.178;5.846;2023-07-29T13:30:50;21.70;99.90
54680;DHT22;40578;53.178;5.846;2023-07-29T13:33:16;21.90;99.90
54680;DHT22;40578;53.178;5.846;2023-07-29T13:35:42;22.10;99.90
54680;DHT22;40578;53.178;5.846;2023-07-29T13:38:08;22.10;99.90
54680;DHT22;40578;53.178;5.846;2023-07-29T13:40:33;22.40;99.90
54680;DHT22;40578;53.178;5.846;2023-07-29T13:42:59;22.30;99.90
54680;DHT22;40578;53.178;5.846;2023-07-29T13:45:25;22.20;99.90
54680;DHT22;40578;53.178;5.846;2023-07-29T13:47:50;22.10;99.90
54680;DHT22;40578;53.178;5.846;2023-07-29T13:50:17;22.20;99.90
54680;DHT22;40578;53.178;5.846;2023-07-29T13:52:43;22.30;99.90
54680;DHT22;40578;53.178;5.846;2023-07-29T13:55:09;22.50;99.90
54680;DHT22;40578;53.178;5.846;2023-07-29T13:57:35;22.40;99.90
54680;DHT22;40578;53.178;5.846;2023-07-29T14:00:01;22.20;99.90
54680;DHT22;40578;53.178;5.846;2023-07-29T14:02:27;22.10;99.90
54680;DHT22;40578;53.178;5.846;2023-07-29T14:04:53;22.10;99.90
54680;DHT22;40578;53.178;5.846;2023-07-29T14:07:18;22.20;99.90
54680;DHT22;40578;53.178;5.846;2023-07-29T14:09:44;22.40;99.90
54680;DHT22;40578;53.178;5.846;2023-07-29T14:12:10;22.60;99.90
54680;DHT22;40578;53.178;5.846;2023-07-29T14:14:38;22.70;99.90
54680;DHT22;40578;53.178;5.846;2023-07-29T14:17:04;22.70;99.90
54680;DHT22;40578;53.178;5.846;2023-07-29T14:19:30;23.00;99.90
54680;DHT22;40578;53.178;5.846;2023-07-29T14:21:55;22.60;99.90
54680;DHT22;40578;53.178;5.846;2023-07-29T14:24:21;22.70;99.90
54680;DHT22;40578;53.178;5.846;2023-07-29T14:26:48;22.70;99.90
54680;DHT22;40578;53.178;5.846;2023-07-29T14:29:13;22.50;99.90
54680;DHT22;40578;53.178;5.846;2023-07-29T14:31:39;22.50;99.90
54680;DHT22;40578;53.178;5.846;2023-07-29T14:34:05;22.60;99.90
54680;DHT22;40578;53.178;5.846;2023-07-29T14:36:30;22.80;99.90
54680;DHT22;40578;53.178;5.846;2023-07-29T14:38:56;22.90;99.90
54680;DHT22;40578;53.178;5.846;2023-07-29T14:41:21;22.40;99.90
54680;DHT22;40578;53.178;5.846;2023-07-29T14:43:47;22.40;99.90
54680;DHT22;40578;53.178;5.846;2023-07-29T14:46:13;22.20;99.90
54680;DHT22;40578;53.178;5.846;2023-07-29T14:48:38;22.40;99.90
54680;DHT22;40578;53.178;5.846;2023-07-29T14:51:04;22.60;99.90
54680;DHT22;40578;53.178;5.846;2023-07-29T14:53:30;22.50;99.90
54680;DHT22;40578;53.178;5.846;2023-07-29T14:56:02;22.50;99.90
54680;DHT22;40578;53.178;5.846;2023-07-29T14:58:27;22.60;99.90
54680;DHT22;40578;53.178;5.846;2023-07-29T15:00:53;22.60;99.90
54680;DHT22;40578;53.178;5.846;2023-07-29T15:03:19;22.60;99.90
54680;DHT22;40578;53.178;5.846;2023-07-29T15:05:44;22.40;99.90
54680;DHT22;40578;53.178;5.846;2023-07-29T15:08:10;22.50;99.90
54680;DHT22;40578;53.178;5.846;2023-07-29T15:10:35;22.60;99.90
54680;DHT22;40578;53.178;5.846;2023-07-29T15:13:02;22.60;99.90
54680;DHT22;40578;53.178;5.846;2023-07-29T15:15:27;22.30;99.90
54680;DHT22;40578;53.178;5.846;2023-07-29T15:17:53;22.20;99.90
54680;DHT22;40578;53.178;5.846;2023-07-29T15:20:19;22.40;99.90
54680;DHT22;40578;53.178;5.846;2023-07-29T15:22:44;22.50;99.90
54680;DHT22;40578;53.178;5.846;2023-07-29T15:25:10;22.60;99.90
54680;DHT22;40578;53.178;5.846;2023-07-29T15:27:36;22.60;99.90
54680;DHT22;40578;53.178;5.846;2023-07-29T15:30:02;22.60;99.90
54680;DHT22;40578;53.178;5.846;2023-07-29T15:32:28;22.50;99.90
54680;DHT22;40578;53.178;5.846;2023-07-29T15:34:54;22.40;99.90